createdAt,value
2016-03-18T00:00:44.037Z,5.5
2016-03-18T00:01:44.008Z,5.43
2016-03-18T00:02:43.981Z,5.5
2016-03-18T00:03:43.951Z,5.43
2016-03-18T00:04:43.922Z,5.48
2016-03-18T00:05:43.894Z,5.47
2016-03-18T00:06:43.871Z,5.39
2016-03-18T00:07:43.842Z,5.36
2016-03-18T00:08:43.815Z,5.43
2016-03-18T00:09:43.786Z,5.39
2016-03-18T00:10:43.756Z,5.41
2016-03-18T00:11:43.729Z,5.41
2016-03-18T00:12:43.700Z,5.46
2016-03-18T00:13:43.656Z,5.39
2016-03-18T00:14:43.642Z,5.41
2016-03-18T00:15:43.599Z,5.44
2016-03-18T00:16:43.570Z,5.44
2016-03-18T00:17:43.558Z,5.41
2016-03-18T00:18:43.513Z,5.32
2016-03-18T00:19:43.484Z,5.41
2016-03-18T00:20:43.472Z,5.41
2016-03-18T00:21:43.427Z,5.28
2016-03-18T00:22:43.399Z,5.3
2016-03-18T00:23:43.371Z,5.33
2016-03-18T00:24:43.341Z,5.3
2016-03-18T00:25:43.313Z,5.35
2016-03-18T00:26:43.285Z,5.28
2016-03-18T00:27:43.271Z,5.32
2016-03-18T00:28:43.227Z,5.32
2016-03-18T00:29:43.215Z,5.38
2016-03-18T00:30:43.170Z,5.46
2016-03-18T00:31:43.144Z,5.38
2016-03-18T00:32:43.130Z,5.32
2016-03-18T00:33:43.086Z,5.39
2016-03-18T00:34:43.057Z,5.43
2016-03-18T00:35:43.029Z,5.28
2016-03-18T00:36:43.000Z,5.25
2016-03-18T00:37:42.972Z,5.3
2016-03-18T00:38:42.943Z,5.29
2016-03-18T00:39:42.915Z,5.26
2016-03-18T00:40:42.885Z,5.29
2016-03-18T00:41:42.857Z,5.3
2016-03-18T00:42:42.828Z,5.28
2016-03-18T00:43:42.800Z,5.21
2016-03-18T00:44:42.771Z,5.26
2016-03-18T00:45:42.773Z,5.21
2016-03-18T00:46:42.714Z,5.2
2016-03-18T00:47:42.686Z,5.2
2016-03-18T00:48:42.657Z,5.17
2016-03-18T00:49:42.613Z,5.15
2016-03-18T00:50:42.600Z,5.11
2016-03-18T00:51:42.572Z,5.12
2016-03-18T00:52:42.527Z,5.15
2016-03-18T00:53:42.514Z,5.1
2016-03-18T00:54:42.470Z,5.15
2016-03-18T00:55:42.441Z,5.08
2016-03-18T00:56:42.414Z,5.04
2016-03-18T00:57:42.384Z,5.1
2016-03-18T00:58:42.403Z,5.05
2016-03-18T00:59:42.344Z,5.04
2016-03-18T01:00:42.300Z,5.12
2016-03-18T01:01:42.270Z,5.04
2016-03-18T01:02:42.242Z,5.07
2016-03-18T01:03:42.229Z,4.97
2016-03-18T01:04:42.185Z,5.1
2016-03-18T01:05:42.172Z,5.11
2016-03-18T01:06:42.143Z,5.12
2016-03-18T01:07:42.104Z,5.04
2016-03-18T01:08:42.075Z,4.99
2016-03-18T01:09:42.046Z,5.04
2016-03-18T01:10:42.018Z,5
2016-03-18T01:11:41.989Z,5.02
2016-03-18T01:12:41.962Z,4.97
2016-03-18T01:13:41.932Z,4.97
2016-03-18T01:14:41.904Z,5
2016-03-18T01:15:41.876Z,4.93
2016-03-18T01:16:41.847Z,4.99
2016-03-18T01:17:41.803Z,5
2016-03-18T01:18:41.773Z,4.92
2016-03-18T01:19:41.745Z,4.97
2016-03-18T01:20:41.717Z,4.96
2016-03-18T01:21:41.689Z,4.84
2016-03-18T01:22:41.659Z,4.87
2016-03-18T01:23:41.631Z,4.9
2016-03-18T01:24:41.603Z,4.89
2016-03-18T01:25:41.589Z,4.8
2016-03-18T01:26:41.545Z,4.89
2016-03-18T01:27:41.517Z,4.78
2016-03-18T01:28:41.488Z,4.82
2016-03-18T01:29:41.460Z,4.8
2016-03-18T01:30:41.430Z,4.78
2016-03-18T01:31:41.402Z,4.77
2016-03-18T01:32:41.374Z,4.71
2016-03-18T01:33:41.345Z,4.78
2016-03-18T01:34:41.317Z,4.71
2016-03-18T01:35:41.288Z,4.77
2016-03-18T01:36:41.260Z,4.71
2016-03-18T01:37:41.231Z,4.75
2016-03-18T01:38:41.202Z,4.75
2016-03-18T01:39:41.174Z,4.7
2016-03-18T01:40:41.146Z,4.68
2016-03-18T01:41:41.101Z,4.63
2016-03-18T01:42:41.088Z,4.68
2016-03-18T01:43:41.045Z,4.68
2016-03-18T01:44:41.015Z,4.73
2016-03-18T01:45:41.003Z,4.56
2016-03-18T01:46:40.958Z,4.67
2016-03-18T01:47:40.930Z,4.66
2016-03-18T01:48:40.901Z,4.6
2016-03-18T01:49:40.919Z,4.58
2016-03-18T01:50:40.845Z,4.58
2016-03-18T01:51:40.816Z,4.58
2016-03-18T01:52:40.787Z,4.62
2016-03-18T01:53:40.759Z,4.6
2016-03-18T01:54:40.730Z,4.59
2016-03-18T01:55:40.702Z,4.55
2016-03-18T01:56:40.657Z,4.68
2016-03-18T01:57:40.645Z,4.53
2016-03-18T01:58:40.600Z,4.52
2016-03-18T01:59:40.572Z,4.62
2016-03-18T02:00:40.558Z,4.53
2016-03-18T02:01:40.514Z,4.53
2016-03-18T02:02:40.502Z,4.53
2016-03-18T02:03:40.458Z,4.58
2016-03-18T02:04:40.429Z,4.5
2016-03-18T02:05:40.400Z,4.49
2016-03-18T02:06:40.388Z,4.56
2016-03-18T02:07:40.344Z,4.55
2016-03-18T02:08:40.362Z,4.49
2016-03-18T02:09:40.286Z,4.55
2016-03-18T02:10:40.257Z,4.55
2016-03-18T02:11:40.229Z,4.53
2016-03-18T02:12:40.215Z,4.49
2016-03-18T02:13:40.172Z,4.49
2016-03-18T02:14:40.128Z,4.45
2016-03-18T02:15:40.115Z,4.48
2016-03-18T02:16:40.087Z,4.42
2016-03-18T02:17:40.043Z,4.52
2016-03-18T02:18:40.029Z,4.45
2016-03-18T02:19:40.000Z,4.42
2016-03-18T02:20:39.956Z,4.49
2016-03-18T02:21:39.928Z,4.41
2016-03-18T02:22:39.900Z,4.4
2016-03-18T02:23:39.871Z,4.42
2016-03-18T02:24:39.858Z,4.41
2016-03-18T02:25:39.828Z,4.41
2016-03-18T02:26:39.785Z,4.44
2016-03-18T02:27:39.756Z,4.37
2016-03-18T02:28:39.744Z,4.42
2016-03-18T02:29:39.683Z,4.41
2016-03-18T02:30:39.671Z,4.42
2016-03-18T02:31:39.627Z,4.41
2016-03-18T02:32:39.597Z,4.4
2016-03-18T02:33:39.585Z,4.45
2016-03-18T02:34:39.557Z,4.37
2016-03-18T02:35:39.512Z,4.45
2016-03-18T02:36:39.484Z,4.38
2016-03-18T02:37:39.455Z,4.37
2016-03-18T02:38:39.427Z,4.38
2016-03-18T02:39:39.396Z,4.38
2016-03-18T02:40:39.407Z,4.41
2016-03-18T02:41:39.270Z,4.44
2016-03-18T02:42:39.367Z,4.41
2016-03-18T02:43:39.291Z,4.41
2016-03-18T02:44:39.232Z,4.48
2016-03-18T02:45:39.250Z,4.42
2016-03-18T02:46:39.174Z,4.41
2016-03-18T02:47:39.145Z,4.37
2016-03-18T02:48:39.118Z,4.38
2016-03-18T02:49:39.089Z,4.37
2016-03-18T02:50:39.045Z,4.32
2016-03-18T02:51:39.017Z,4.31
2016-03-18T02:52:39.004Z,4.31
2016-03-18T02:53:38.959Z,4.4
2016-03-18T02:54:38.946Z,4.28
2016-03-18T02:55:38.903Z,4.35
2016-03-18T02:56:38.889Z,4.3
2016-03-18T02:57:38.845Z,4.34
2016-03-18T02:58:38.816Z,4.28
2016-03-18T02:59:38.788Z,4.28
2016-03-18T03:00:38.774Z,4.35
2016-03-18T03:01:38.730Z,4.3
2016-03-18T03:02:38.717Z,4.26
2016-03-18T03:03:38.673Z,4.24
2016-03-18T03:04:38.644Z,4.24
2016-03-18T03:05:38.617Z,4.26
2016-03-18T03:06:38.635Z,4.2
2016-03-18T03:07:38.560Z,4.2
2016-03-18T03:08:38.515Z,4.16
2016-03-18T03:09:38.502Z,4.13
2016-03-18T03:10:38.473Z,4.02
2016-03-18T03:11:38.446Z,4.17
2016-03-18T03:12:38.401Z,4.19
2016-03-18T03:13:38.388Z,4.05
2016-03-18T03:14:38.343Z,4.13
2016-03-18T03:15:38.315Z,4.06
2016-03-18T03:16:38.286Z,4.06
2016-03-18T03:17:38.258Z,3.98
2016-03-18T03:18:38.229Z,4.02
2016-03-18T03:19:38.201Z,3.87
2016-03-18T03:20:38.157Z,3.86
2016-03-18T03:21:38.160Z,3.88
2016-03-18T03:22:38.100Z,3.91
2016-03-18T03:23:38.071Z,3.99
2016-03-18T03:24:38.042Z,3.96
2016-03-18T03:25:38.045Z,3.96
2016-03-18T03:26:38.001Z,3.87
2016-03-18T03:27:38.003Z,3.91
2016-03-18T03:28:37.928Z,3.86
2016-03-18T03:29:37.915Z,3.88
2016-03-18T03:30:37.855Z,3.86
2016-03-18T03:31:37.842Z,3.76
2016-03-18T03:32:37.798Z,3.78
2016-03-18T03:33:37.769Z,3.86
2016-03-18T03:34:37.742Z,3.83
2016-03-18T03:35:37.713Z,3.77
2016-03-18T03:36:37.684Z,3.78
2016-03-18T03:37:37.655Z,3.73
2016-03-18T03:38:37.627Z,3.76
2016-03-18T03:39:37.598Z,3.7
2016-03-18T03:40:37.554Z,3.7
2016-03-18T03:41:37.541Z,3.66
2016-03-18T03:42:37.513Z,3.65
2016-03-18T03:43:37.468Z,3.65
2016-03-18T03:44:37.455Z,3.68
2016-03-18T03:45:37.412Z,3.68
2016-03-18T03:46:37.383Z,3.68
2016-03-18T03:47:37.354Z,3.7
2016-03-18T03:48:37.326Z,3.65
2016-03-18T03:49:37.298Z,3.66
2016-03-18T03:50:37.269Z,3.68
2016-03-18T03:51:37.224Z,3.68
2016-03-18T03:52:37.196Z,3.68
2016-03-18T03:53:37.183Z,3.5
2016-03-18T03:54:37.139Z,3.56
2016-03-18T03:55:37.110Z,3.53
2016-03-18T03:56:37.081Z,3.59
2016-03-18T03:57:37.069Z,3.56
2016-03-18T03:58:37.024Z,3.5
2016-03-18T03:59:36.980Z,3.53
2016-03-18T04:00:36.967Z,3.48
2016-03-18T04:01:36.923Z,3.5
2016-03-18T04:02:36.895Z,3.5
2016-03-18T04:03:36.881Z,3.4
2016-03-18T04:04:36.838Z,3.44
2016-03-18T04:05:36.809Z,3.34
2016-03-18T04:06:36.796Z,3.41
2016-03-18T04:07:36.743Z,3.4
2016-03-18T04:08:36.730Z,3.23
2016-03-18T04:09:36.686Z,3.31
2016-03-18T04:10:36.657Z,3.26
2016-03-18T04:11:36.629Z,3.29
2016-03-18T04:12:36.600Z,3.26
2016-03-18T04:13:36.572Z,3.31
2016-03-18T04:14:36.528Z,3.28
2016-03-18T04:15:36.515Z,3.26
2016-03-18T04:16:36.470Z,3.23
2016-03-18T04:17:36.458Z,3.23
2016-03-18T04:18:36.256Z,3.23
2016-03-18T04:19:36.384Z,3.16
2016-03-18T04:20:36.356Z,3.22
2016-03-18T04:21:36.327Z,3.11
2016-03-18T04:22:36.299Z,3.25
2016-03-18T04:23:36.269Z,3.22
2016-03-18T04:24:36.257Z,3.25
2016-03-18T04:25:36.197Z,3.23
2016-03-18T04:26:36.013Z,3.28
2016-03-18T04:27:36.155Z,3.31
2016-03-18T04:28:36.113Z,3.36
2016-03-18T04:29:36.068Z,3.37
2016-03-18T04:30:36.055Z,3.29
2016-03-18T04:31:36.026Z,3.29
2016-03-18T04:32:35.982Z,3.29
2016-03-18T04:33:35.953Z,3.31
2016-03-18T04:34:35.940Z,3.34
2016-03-18T04:35:35.896Z,3.34
2016-03-18T04:36:35.868Z,3.28
2016-03-18T04:37:35.839Z,3.37
2016-03-18T04:38:35.810Z,3.26
2016-03-18T04:39:35.766Z,3.36
2016-03-18T04:40:35.770Z,3.34
2016-03-18T04:41:35.725Z,3.31
2016-03-18T04:42:35.681Z,3.32
2016-03-18T04:43:35.652Z,3.36
2016-03-18T04:44:35.624Z,3.42
2016-03-18T04:45:35.595Z,3.36
2016-03-18T04:46:35.551Z,3.34
2016-03-18T04:47:35.538Z,3.28
2016-03-18T04:48:35.494Z,3.4
2016-03-18T04:49:35.465Z,3.28
2016-03-18T04:50:35.453Z,3.16
2016-03-18T04:51:35.408Z,3.16
2016-03-18T04:52:35.380Z,3.05
2016-03-18T04:53:35.350Z,2.93
2016-03-18T04:54:35.307Z,2.92
2016-03-18T04:55:35.294Z,2.89
2016-03-18T04:56:35.266Z,2.89
2016-03-18T04:57:35.221Z,2.85
2016-03-18T04:58:35.193Z,2.83
2016-03-18T04:59:35.180Z,2.83
2016-03-18T05:00:35.136Z,2.69
2016-03-18T05:01:35.107Z,2.8
2016-03-18T05:02:35.078Z,2.71
2016-03-18T05:03:35.034Z,2.69
2016-03-18T05:04:35.005Z,2.72
2016-03-18T05:05:34.993Z,2.75
2016-03-18T05:06:34.948Z,2.72
2016-03-18T05:07:34.920Z,2.83
2016-03-18T05:08:34.890Z,2.79
2016-03-18T05:09:34.847Z,2.77
2016-03-18T05:10:34.850Z,2.8
2016-03-18T05:11:34.806Z,2.72
2016-03-18T05:12:34.761Z,2.72
2016-03-18T05:13:34.734Z,2.69
2016-03-18T05:14:34.704Z,2.67
2016-03-18T05:15:34.660Z,2.61
2016-03-18T05:16:34.679Z,2.57
2016-03-18T05:17:34.619Z,2.44
2016-03-18T05:18:34.575Z,2.46
2016-03-18T05:19:34.546Z,2.39
2016-03-18T05:20:34.533Z,2.26
2016-03-18T05:21:34.505Z,2.33
2016-03-18T05:22:34.460Z,2.43
2016-03-18T05:23:34.431Z,2.42
2016-03-18T05:24:34.403Z,2.29
2016-03-18T05:25:34.390Z,2.31
2016-03-18T05:26:34.346Z,2.26
2016-03-18T05:27:34.316Z,2.22
2016-03-18T05:28:34.273Z,2.18
2016-03-18T05:29:34.244Z,2.14
2016-03-18T05:30:34.216Z,2.07
2016-03-18T05:31:34.171Z,2.07
2016-03-18T05:32:34.143Z,2
2016-03-18T05:33:34.115Z,2
2016-03-18T05:34:34.071Z,1.81
2016-03-18T05:35:34.074Z,1.8
2016-03-18T05:36:34.030Z,1.68
2016-03-18T05:37:33.985Z,1.66
2016-03-18T05:38:33.957Z,1.5
2016-03-18T05:39:33.928Z,1.56
2016-03-18T05:40:33.883Z,1.44
2016-03-18T05:41:33.854Z,1.32
2016-03-18T05:42:33.826Z,1.42
2016-03-18T05:43:33.798Z,1.32
2016-03-18T05:44:33.770Z,1.34
2016-03-18T05:45:33.725Z,1.3
2016-03-18T05:46:33.697Z,1.24
2016-03-18T05:47:33.667Z,1.34
2016-03-18T05:48:33.640Z,1.31
2016-03-18T05:49:33.611Z,1.28
2016-03-18T05:50:33.583Z,1.23
2016-03-18T05:51:33.538Z,1.23
2016-03-18T05:52:33.525Z,1.28
2016-03-18T05:53:33.481Z,1.26
2016-03-18T05:54:33.453Z,1.28
2016-03-18T05:55:33.424Z,1.28
2016-03-18T05:56:33.380Z,1.22
2016-03-18T05:57:33.367Z,1.28
2016-03-18T05:58:33.323Z,1.28
2016-03-18T05:59:33.294Z,1.32
2016-03-18T06:00:33.265Z,1.4
2016-03-18T06:01:33.237Z,1.42
2016-03-18T06:02:33.208Z,1.41
2016-03-18T06:03:33.180Z,1.41
2016-03-18T06:04:33.135Z,1.4
2016-03-18T06:05:33.107Z,1.41
2016-03-18T06:06:33.078Z,1.37
2016-03-18T06:07:33.034Z,1.34
2016-03-18T06:08:33.006Z,1.42
2016-03-18T06:09:32.977Z,1.34
2016-03-18T06:10:32.964Z,1.32
2016-03-18T06:11:32.920Z,1.26
2016-03-18T06:12:32.892Z,1.34
2016-03-18T06:13:32.848Z,1.34
2016-03-18T06:14:32.818Z,1.26
2016-03-18T06:15:32.790Z,1.32
2016-03-18T06:16:32.762Z,1.28
2016-03-18T06:17:32.734Z,1.24
2016-03-18T06:18:32.704Z,1.22
2016-03-18T06:19:32.675Z,1.26
2016-03-18T06:20:32.631Z,1.31
2016-03-18T06:21:32.603Z,1.34
2016-03-18T06:22:32.559Z,1.34
2016-03-18T06:23:32.546Z,1.3
2016-03-18T06:24:32.345Z,1.37
2016-03-18T06:25:32.473Z,1.37
2016-03-18T06:26:32.445Z,1.41
2016-03-18T06:27:32.416Z,1.37
2016-03-18T06:28:32.388Z,1.37
2016-03-18T06:29:32.358Z,1.37
2016-03-18T06:30:32.331Z,1.38
2016-03-18T06:31:32.302Z,1.5
2016-03-18T06:32:32.274Z,1.4
2016-03-18T06:33:32.244Z,1.37
2016-03-18T06:34:32.201Z,1.37
2016-03-18T06:35:32.157Z,1.38
2016-03-18T06:36:32.128Z,1.37
2016-03-18T06:37:32.099Z,1.37
2016-03-18T06:38:32.087Z,1.41
2016-03-18T06:39:32.043Z,1.38
2016-03-18T06:40:32.013Z,1.5
2016-03-18T06:41:31.985Z,1.41
2016-03-18T06:42:31.940Z,1.4
2016-03-18T06:43:31.929Z,1.41
2016-03-18T06:44:31.946Z,1.44
2016-03-18T06:45:31.856Z,1.45
2016-03-18T06:46:31.826Z,1.32
2016-03-18T06:47:31.782Z,1.38
2016-03-18T06:48:31.754Z,1.44
2016-03-18T06:49:31.726Z,1.37
2016-03-18T06:50:31.697Z,1.35
2016-03-18T06:51:31.668Z,1.45
2016-03-18T06:52:31.640Z,1.45
2016-03-18T06:53:31.612Z,1.49
2016-03-18T06:54:31.583Z,1.52
2016-03-18T06:55:31.554Z,1.59
2016-03-18T06:56:31.514Z,1.56
2016-03-18T06:57:31.474Z,1.53
2016-03-18T06:58:31.417Z,1.49
2016-03-18T06:59:31.376Z,1.59
2016-03-18T07:00:31.336Z,1.5
2016-03-18T07:01:31.286Z,1.56
2016-03-18T07:02:31.253Z,1.53
2016-03-18T07:03:31.220Z,1.55
2016-03-18T07:04:31.187Z,1.68
2016-03-18T07:05:31.155Z,1.66
2016-03-18T07:06:31.124Z,1.66
2016-03-18T07:07:31.079Z,1.6
2016-03-18T07:08:31.049Z,1.63
2016-03-18T07:09:31.019Z,1.62
2016-03-18T07:10:30.989Z,1.67
2016-03-18T07:11:30.960Z,1.7
2016-03-18T07:12:30.916Z,1.66
2016-03-18T07:13:30.746Z,1.63
2016-03-18T07:14:30.873Z,1.74
2016-03-18T07:15:30.844Z,1.71
2016-03-18T07:16:30.799Z,1.71
2016-03-18T07:17:30.770Z,1.73
2016-03-18T07:18:30.741Z,1.74
2016-03-18T07:19:30.712Z,1.74
2016-03-18T07:20:30.683Z,1.76
2016-03-18T07:21:30.640Z,1.76
2016-03-18T07:22:30.611Z,1.76
2016-03-18T07:23:30.598Z,1.77
2016-03-18T07:24:30.553Z,1.77
2016-03-18T07:25:30.525Z,1.63
2016-03-18T07:26:30.497Z,1.77
2016-03-18T07:27:30.453Z,1.8
2016-03-18T07:28:30.424Z,1.8
2016-03-18T07:29:30.411Z,1.81
2016-03-18T07:30:30.366Z,1.84
2016-03-18T07:31:30.339Z,1.78
2016-03-18T07:32:30.309Z,1.76
2016-03-18T07:33:30.281Z,1.8
2016-03-18T07:34:30.252Z,1.77
2016-03-18T07:35:30.224Z,1.8
2016-03-18T07:36:30.180Z,1.78
2016-03-18T07:37:30.152Z,1.78
2016-03-18T07:38:30.122Z,1.87
2016-03-18T07:39:30.110Z,1.78
2016-03-18T07:40:30.065Z,1.8
2016-03-18T07:41:30.037Z,1.77
2016-03-18T07:42:30.008Z,1.8
2016-03-18T07:43:29.979Z,1.8
2016-03-18T07:44:29.951Z,1.77
2016-03-18T07:45:29.907Z,1.89
2016-03-18T07:46:29.878Z,1.91
2016-03-18T07:47:29.866Z,2
2016-03-18T07:48:29.821Z,2.04
2016-03-18T07:49:29.793Z,2.04
2016-03-18T07:50:29.764Z,1.99
2016-03-18T07:51:29.735Z,1.97
2016-03-18T07:52:29.692Z,2.14
2016-03-18T07:53:29.662Z,2.13
2016-03-18T07:54:29.650Z,2.15
2016-03-18T07:55:29.606Z,2.15
2016-03-18T07:56:29.687Z,2.14
2016-03-18T07:57:29.565Z,2.24
2016-03-18T07:58:29.520Z,2.28
2016-03-18T07:59:29.491Z,2.24
2016-03-18T08:00:29.464Z,2.22
2016-03-18T08:01:29.434Z,2.28
2016-03-18T08:02:29.390Z,2.28
2016-03-18T08:03:29.378Z,2.31
2016-03-18T08:04:29.333Z,2.18
2016-03-18T08:05:29.305Z,2.35
2016-03-18T08:06:29.275Z,2.29
2016-03-18T08:07:29.389Z,2.29
2016-03-18T08:08:29.469Z,2.39
2016-03-18T08:09:29.205Z,2.38
2016-03-18T08:10:29.161Z,2.42
2016-03-18T08:11:29.133Z,2.43
2016-03-18T08:12:29.088Z,2.46
2016-03-18T08:13:29.060Z,2.43
2016-03-18T08:14:29.047Z,2.39
2016-03-18T08:15:29.003Z,2.42
2016-03-18T08:16:28.975Z,2.43
2016-03-18T08:17:28.946Z,2.39
2016-03-18T08:18:28.762Z,2.39
2016-03-18T08:19:28.904Z,2.43
2016-03-18T08:20:28.704Z,2.42
2016-03-18T08:21:28.832Z,2.46
2016-03-18T08:22:28.803Z,2.5
2016-03-18T08:23:28.790Z,2.42
2016-03-18T08:24:28.746Z,2.53
2016-03-18T08:25:28.717Z,2.54
2016-03-18T08:26:28.534Z,2.54
2016-03-18T08:27:28.661Z,2.54
2016-03-18T08:28:28.616Z,2.68
2016-03-18T08:29:28.588Z,2.62
2016-03-18T08:30:28.559Z,2.65
2016-03-18T08:31:28.547Z,2.75
2016-03-18T08:32:28.345Z,2.77
2016-03-18T08:33:28.473Z,2.85
2016-03-18T08:34:28.444Z,2.8
2016-03-18T08:35:28.417Z,2.92
2016-03-18T08:36:28.388Z,3.03
2016-03-18T08:37:28.359Z,3.21
2016-03-18T08:38:28.361Z,3.25
2016-03-18T08:39:28.302Z,3.31
2016-03-18T08:40:28.289Z,3.36
2016-03-18T08:41:28.244Z,3.47
2016-03-18T08:42:28.216Z,3.59
2016-03-18T08:43:28.172Z,3.58
2016-03-18T08:44:28.160Z,3.68
2016-03-18T08:45:28.131Z,3.69
2016-03-18T08:46:28.102Z,3.69
2016-03-18T08:47:28.073Z,3.81
2016-03-18T08:48:28.030Z,3.77
2016-03-18T08:49:28.016Z,3.83
2016-03-18T08:50:27.987Z,3.91
2016-03-18T08:51:27.944Z,4.01
2016-03-18T08:52:27.962Z,4.14
2016-03-18T08:53:27.918Z,4.23
2016-03-18T08:54:27.874Z,4.31
2016-03-18T08:55:27.845Z,4.42
2016-03-18T08:56:27.816Z,4.5
2016-03-18T08:57:27.788Z,4.58
2016-03-18T08:58:27.775Z,4.74
2016-03-18T08:59:27.730Z,4.75
2016-03-18T09:00:27.702Z,4.97
2016-03-18T09:01:27.673Z,4.99
2016-03-18T09:02:27.645Z,5.1
2016-03-18T09:03:27.633Z,5.12
2016-03-18T09:04:27.603Z,5.25
2016-03-18T09:05:27.763Z,5.23
2016-03-18T09:06:27.547Z,5.28
2016-03-18T09:07:27.518Z,5.29
2016-03-18T09:08:27.489Z,5.32
2016-03-18T09:09:27.460Z,5.32
2016-03-18T09:10:27.433Z,5.36
2016-03-18T09:11:27.419Z,5.39
2016-03-18T09:12:27.453Z,5.36
2016-03-18T09:13:27.363Z,5.5
2016-03-18T09:14:27.333Z,5.43
2016-03-18T09:15:27.305Z,5.5
2016-03-18T09:16:27.277Z,5.62
2016-03-18T09:17:27.248Z,5.56
2016-03-18T09:18:27.235Z,5.66
2016-03-18T09:19:27.206Z,5.61
2016-03-18T09:20:27.178Z,5.66
2016-03-18T09:21:27.149Z,5.66
2016-03-18T09:22:27.121Z,5.66
2016-03-18T09:23:27.107Z,5.71
2016-03-18T09:24:27.079Z,5.82
2016-03-18T09:25:27.051Z,5.84
2016-03-18T09:26:27.100Z,5.86
2016-03-18T09:27:27.009Z,5.87
2016-03-18T09:28:27.043Z,5.89
2016-03-18T09:29:26.953Z,5.87
2016-03-18T09:30:26.923Z,5.98
2016-03-18T09:31:26.895Z,6.09
2016-03-18T09:32:26.882Z,6.12
2016-03-18T09:33:26.853Z,6.07
2016-03-18T09:34:26.825Z,6.12
2016-03-18T09:35:26.796Z,6.11
2016-03-18T09:36:26.768Z,6.31
2016-03-18T09:37:26.739Z,6.3
2016-03-18T09:38:26.727Z,6.26
2016-03-18T09:39:26.697Z,6.38
2016-03-18T09:40:26.685Z,6.52
2016-03-18T09:41:26.641Z,6.48
2016-03-18T09:42:26.627Z,6.38
2016-03-18T09:43:26.630Z,6.24
2016-03-18T09:44:26.571Z,6.28
2016-03-18T09:45:26.557Z,6.12
2016-03-18T09:46:26.514Z,6.07
2016-03-18T09:47:26.501Z,6.05
2016-03-18T09:48:26.471Z,5.98
2016-03-18T09:49:26.460Z,5.87
2016-03-18T09:50:26.415Z,5.8
2016-03-18T09:51:26.432Z,5.83
2016-03-18T09:52:26.358Z,5.86
2016-03-18T09:53:26.345Z,5.82
2016-03-18T09:54:26.316Z,5.76
2016-03-18T09:55:26.288Z,5.8
2016-03-18T09:56:26.259Z,5.82
2016-03-18T09:57:26.231Z,5.84
2016-03-18T09:58:26.233Z,5.8
2016-03-18T09:59:26.189Z,5.71
2016-03-18T10:00:26.222Z,5.66
2016-03-18T10:01:26.131Z,5.66
2016-03-18T10:02:26.119Z,5.54
2016-03-18T10:03:26.090Z,5.56
2016-03-18T10:04:26.061Z,5.53
2016-03-18T10:05:26.034Z,5.48
2016-03-18T10:06:26.005Z,5.59
2016-03-18T10:07:25.991Z,5.47
2016-03-18T10:08:25.948Z,5.57
2016-03-18T10:09:25.935Z,5.51
2016-03-18T10:10:25.906Z,5.47
2016-03-18T10:11:25.878Z,5.54
2016-03-18T10:12:25.849Z,5.5
2016-03-18T10:13:25.821Z,5.59
2016-03-18T10:14:25.791Z,5.57
2016-03-18T10:15:25.779Z,5.65
2016-03-18T10:16:25.797Z,5.65
2016-03-18T10:17:25.721Z,5.76
2016-03-18T10:18:25.694Z,5.75
2016-03-18T10:19:25.665Z,5.61
2016-03-18T10:20:25.652Z,5.59
2016-03-18T10:21:25.607Z,5.64
2016-03-18T10:22:25.595Z,5.66
2016-03-18T10:23:25.550Z,5.69
2016-03-18T10:24:25.521Z,5.69
2016-03-18T10:25:25.509Z,5.65
2016-03-18T10:26:25.480Z,5.69
2016-03-18T10:27:25.452Z,5.69
2016-03-18T10:28:25.439Z,5.68
2016-03-18T10:29:25.426Z,5.65
2016-03-18T10:30:25.366Z,5.71
2016-03-18T10:31:25.337Z,5.66
2016-03-18T10:32:25.324Z,5.71
2016-03-18T10:33:25.296Z,5.71
2016-03-18T10:34:25.268Z,5.76
2016-03-18T10:35:25.239Z,5.8
2016-03-18T10:36:25.211Z,5.73
2016-03-18T10:37:25.197Z,5.72
2016-03-18T10:38:25.153Z,5.71
2016-03-18T10:39:25.141Z,5.73
2016-03-18T10:40:25.111Z,5.75
2016-03-18T10:41:25.083Z,5.75
2016-03-18T10:42:25.055Z,5.73
2016-03-18T10:43:25.027Z,5.73
2016-03-18T10:44:24.997Z,5.69
2016-03-18T10:45:24.985Z,5.76
2016-03-18T10:46:24.955Z,5.73
2016-03-18T10:47:24.927Z,5.76
2016-03-18T10:48:24.899Z,5.84
2016-03-18T10:49:24.885Z,5.8
2016-03-18T10:50:24.686Z,5.84
2016-03-18T10:51:24.813Z,5.75
2016-03-18T10:52:24.784Z,5.73
2016-03-18T10:53:24.772Z,5.73
2016-03-18T10:54:24.743Z,5.75
2016-03-18T10:55:24.715Z,5.73
2016-03-18T10:56:24.702Z,5.73
2016-03-18T10:57:24.657Z,5.71
2016-03-18T10:58:24.629Z,5.76
2016-03-18T10:59:24.601Z,5.84
2016-03-18T11:00:24.572Z,5.8
2016-03-18T11:01:24.606Z,5.9
2016-03-18T11:02:24.562Z,5.87
2016-03-18T11:03:24.517Z,5.79
2016-03-18T11:04:24.473Z,5.82
2016-03-18T11:05:24.492Z,5.82
2016-03-18T11:06:24.416Z,5.86
2016-03-18T11:07:24.387Z,5.87
2016-03-18T11:08:24.375Z,5.86
2016-03-18T11:09:24.346Z,5.86
2016-03-18T11:10:24.317Z,5.9
2016-03-18T11:11:24.289Z,5.98
2016-03-18T11:12:24.260Z,5.94
2016-03-18T11:13:24.247Z,6.04
2016-03-18T11:14:24.219Z,6.07
2016-03-18T11:15:24.191Z,6.08
2016-03-18T11:16:24.193Z,6.11
2016-03-18T11:17:24.133Z,6.14
2016-03-18T11:18:24.105Z,6.05
2016-03-18T11:19:24.076Z,6.07
2016-03-18T11:20:24.047Z,6.09
2016-03-18T11:21:24.019Z,6.01
2016-03-18T11:22:24.007Z,6.11
2016-03-18T11:23:24.290Z,6.14
2016-03-18T11:24:24.012Z,6.22
2016-03-18T11:25:23.920Z,6.27
2016-03-18T11:26:23.892Z,6.28
2016-03-18T11:27:23.879Z,6.28
2016-03-18T11:28:23.851Z,6.26
2016-03-18T11:29:23.821Z,6.24
2016-03-18T11:30:23.792Z,6.35
2016-03-18T11:31:23.765Z,6.3
2016-03-18T11:32:23.736Z,6.28
2016-03-18T11:33:23.707Z,6.17
2016-03-18T11:34:23.694Z,6.12
2016-03-18T11:35:23.666Z,6.04
2016-03-18T11:36:23.637Z,6.02
2016-03-18T11:37:23.608Z,6.04
2016-03-18T11:38:23.595Z,6.12
2016-03-18T11:39:23.645Z,6.05
2016-03-18T11:40:23.523Z,6.09
2016-03-18T11:41:23.510Z,6.09
2016-03-18T11:42:23.481Z,6.16
2016-03-18T11:43:23.453Z,6.22
2016-03-18T11:44:23.441Z,6.26
2016-03-18T11:45:23.396Z,6.28
2016-03-18T11:46:23.383Z,6.44
2016-03-18T11:47:23.355Z,6.48
2016-03-18T11:48:23.341Z,6.48
2016-03-18T11:49:23.297Z,6.51
2016-03-18T11:50:23.284Z,6.64
2016-03-18T11:51:23.256Z,6.67
2016-03-18T11:52:23.227Z,6.7
2016-03-18T11:53:23.198Z,6.72
2016-03-18T11:54:23.060Z,6.75
2016-03-18T11:55:23.141Z,6.64
2016-03-18T11:56:23.129Z,6.79
2016-03-18T11:57:23.090Z,6.78
2016-03-18T11:58:23.076Z,6.81
2016-03-18T11:59:23.048Z,6.79
2016-03-18T12:00:23.019Z,6.74
2016-03-18T12:01:22.990Z,6.85
2016-03-18T12:02:22.978Z,6.81
2016-03-18T12:03:22.949Z,6.78
2016-03-18T12:04:22.920Z,6.75
2016-03-18T12:05:22.892Z,6.7
2016-03-18T12:06:22.864Z,6.66
2016-03-18T12:07:22.851Z,6.74
2016-03-18T12:08:22.822Z,6.78
2016-03-18T12:09:22.825Z,6.78
2016-03-18T12:10:22.780Z,6.75
2016-03-18T12:11:22.752Z,6.69
2016-03-18T12:12:22.708Z,6.78
2016-03-18T12:13:22.694Z,6.69
2016-03-18T12:14:22.666Z,6.66
2016-03-18T12:15:22.637Z,6.66
2016-03-18T12:16:22.625Z,6.62
2016-03-18T12:17:22.580Z,6.67
2016-03-18T12:18:22.568Z,6.72
2016-03-18T12:19:22.539Z,6.74
2016-03-18T12:20:22.510Z,6.69
2016-03-18T12:21:22.482Z,6.66
2016-03-18T12:22:22.469Z,6.66
2016-03-18T12:23:22.441Z,6.75
2016-03-18T12:24:22.459Z,6.72
2016-03-18T12:25:22.384Z,6.84
2016-03-18T12:26:22.370Z,6.84
2016-03-18T12:27:22.357Z,6.82
2016-03-18T12:28:22.313Z,6.79
2016-03-18T12:29:22.284Z,6.87
2016-03-18T12:30:22.272Z,6.96
2016-03-18T12:31:22.243Z,6.82
2016-03-18T12:32:22.215Z,6.93
2016-03-18T12:33:22.186Z,6.85
2016-03-18T12:34:22.173Z,6.81
2016-03-18T12:35:22.129Z,6.88
2016-03-18T12:36:22.101Z,6.85
2016-03-18T12:37:22.087Z,6.82
2016-03-18T12:38:22.059Z,6.88
2016-03-18T12:39:22.030Z,6.81
2016-03-18T12:40:22.017Z,6.87
2016-03-18T12:41:21.989Z,6.78
2016-03-18T12:42:21.961Z,6.77
2016-03-18T12:43:21.933Z,6.87
2016-03-18T12:44:21.903Z,6.79
2016-03-18T12:45:21.891Z,6.81
2016-03-18T12:46:21.861Z,6.88
2016-03-18T12:47:21.693Z,6.85
2016-03-18T12:48:21.805Z,6.89
2016-03-18T12:49:21.776Z,6.77
2016-03-18T12:50:21.763Z,6.81
2016-03-18T12:51:21.719Z,6.7
2016-03-18T12:52:21.707Z,6.74
2016-03-18T12:53:21.677Z,6.7
2016-03-18T12:54:21.665Z,6.72
2016-03-18T12:55:21.635Z,6.78
2016-03-18T12:56:21.592Z,6.74
2016-03-18T12:57:21.438Z,6.82
2016-03-18T12:58:21.551Z,6.95
2016-03-18T12:59:21.521Z,6.92
2016-03-18T13:00:21.509Z,6.92
2016-03-18T13:01:21.480Z,7.06
2016-03-18T13:02:21.451Z,7
2016-03-18T13:03:21.438Z,6.92
2016-03-18T13:04:21.395Z,6.99
2016-03-18T13:05:21.366Z,6.95
2016-03-18T13:06:21.369Z,7
2016-03-18T13:07:21.325Z,7.11
2016-03-18T13:08:21.295Z,7.06
2016-03-18T13:09:21.267Z,7.13
2016-03-18T13:10:21.253Z,7.17
2016-03-18T13:11:21.224Z,7.14
2016-03-18T13:12:21.195Z,7.18
2016-03-18T13:13:21.167Z,7.11
2016-03-18T13:14:21.139Z,7.15
2016-03-18T13:15:21.125Z,7.07
2016-03-18T13:16:21.097Z,7.13
2016-03-18T13:17:21.067Z,6.93
2016-03-18T13:18:21.039Z,6.95
2016-03-18T13:19:21.073Z,6.92
2016-03-18T13:20:20.998Z,6.97
2016-03-18T13:21:20.970Z,6.88